createdAt,value
2022-09-27T00:00:31.490Z,8.32
2022-09-27T00:02:58.244Z,6.45
2022-09-27T00:05:24.979Z,6.43
2022-09-27T00:07:51.675Z,9.02
2022-09-27T00:10:19.440Z,14.68
2022-09-27T00:12:46.239Z,10.45
2022-09-27T00:15:13.082Z,7.82
2022-09-27T00:17:40.588Z,6.97
2022-09-27T00:20:08.420Z,6.80
2022-09-27T00:22:35.555Z,7.45
2022-09-27T00:25:05.579Z,10.23
2022-09-27T00:27:32.189Z,8.23
2022-09-27T00:29:58.852Z,6.50
2022-09-27T00:32:25.467Z,7.55
2022-09-27T00:34:52.133Z,8.20
2022-09-27T00:37:18.695Z,7.78
2022-09-27T00:39:45.296Z,8.07
2022-09-27T00:42:12.731Z,9.80
2022-09-27T00:44:39.709Z,9.55
2022-09-27T00:47:36.044Z,7.22
2022-09-27T00:50:17.328Z,6.45
2022-09-27T00:53:17.858Z,7.95
2022-09-27T00:55:55.871Z,7.15
2022-09-27T00:58:28.538Z,7.00
2022-09-27T01:01:00.541Z,9.30
2022-09-27T01:03:39.022Z,8.65
2022-09-27T01:06:08.202Z,9.02
2022-09-27T01:08:35.782Z,6.82
2022-09-27T01:11:11.451Z,6.70
2022-09-27T01:13:54.306Z,6.72
2022-09-27T01:16:29.875Z,7.35
2022-09-27T01:19:27.766Z,8.88
2022-09-27T01:22:23.903Z,7.07
2022-09-27T01:25:05.718Z,6.75
2022-09-27T01:28:02.267Z,6.18
2022-09-27T01:30:43.271Z,6.63
2022-09-27T01:33:22.491Z,9.68
2022-09-27T01:36:17.144Z,11.60
2022-09-27T01:39:14.544Z,8.23
2022-09-27T01:41:51.270Z,15.63
2022-09-27T01:44:35.167Z,15.63
2022-09-27T01:47:05.239Z,10.05
2022-09-27T01:49:47.548Z,6.15
2022-09-27T01:52:19.609Z,8.43
2022-09-27T01:54:52.904Z,7.07
2022-09-27T01:57:25.388Z,10.00
2022-09-27T02:00:01.405Z,8.65
2022-09-27T02:02:31.067Z,15.50
2022-09-27T02:07:34.898Z,8.48
2022-09-27T02:10:12.911Z,5.45
2022-09-27T02:12:57.336Z,9.88
2022-09-27T02:15:26.445Z,7.90
2022-09-27T02:18:01.443Z,13.80
2022-09-27T02:20:43.865Z,8.30
2022-09-27T02:23:31.343Z,12.63
2022-09-27T02:26:05.017Z,8.35
2022-09-27T02:28:53.465Z,10.18
2022-09-27T02:31:20.888Z,8.27
2022-09-27T02:33:56.321Z,12.18
2022-09-27T02:36:22.976Z,12.60
2022-09-27T02:38:49.821Z,5.60
2022-09-27T02:41:21.507Z,6.65
2022-09-27T02:43:52.706Z,12.73
2022-09-27T02:46:38.134Z,6.40
2022-09-27T02:49:25.842Z,5.70
2022-09-27T02:52:03.878Z,4.57
2022-09-27T02:54:40.934Z,6.03
2022-09-27T02:57:35.009Z,1.90
2022-09-27T03:00:07.526Z,4.10
2022-09-27T03:02:51.393Z,3.22
2022-09-27T03:05:22.370Z,3.55
2022-09-27T03:07:49.625Z,2.72
2022-09-27T03:10:20.223Z,1.52
2022-09-27T03:12:47.169Z,1.58
2022-09-27T03:15:13.832Z,1.52
2022-09-27T03:17:40.475Z,2.28
2022-09-27T03:20:08.844Z,2.20
2022-09-27T03:22:35.695Z,1.27
2022-09-27T03:25:02.442Z,2.17
2022-09-27T03:27:29.035Z,1.95
2022-09-27T03:29:55.720Z,1.20
2022-09-27T03:32:22.285Z,2.63
2022-09-27T03:34:48.998Z,1.33
2022-09-27T03:37:15.607Z,2.75
2022-09-27T03:39:42.196Z,1.55
2022-09-27T03:42:08.797Z,1.42
2022-09-27T03:44:35.548Z,1.67
2022-09-27T03:47:02.192Z,2.30
2022-09-27T03:49:29.108Z,1.65
2022-09-27T03:51:55.658Z,3.70
2022-09-27T03:54:22.289Z,2.42
2022-09-27T03:56:48.845Z,1.50
2022-09-27T03:59:15.623Z,1.27
2022-09-27T04:01:43.303Z,4.10
2022-09-27T04:04:11.437Z,2.03
2022-09-27T04:06:38.122Z,1.60
2022-09-27T04:09:04.984Z,1.73
2022-09-27T04:11:31.637Z,10.18
2022-09-27T04:13:58.750Z,2.00
2022-09-27T04:16:25.580Z,1.63
2022-09-27T04:18:52.401Z,4.35
2022-09-27T04:21:20.470Z,4.63
2022-09-27T04:23:47.090Z,1.60
2022-09-27T04:26:13.846Z,2.80
2022-09-27T04:28:40.747Z,1.50
2022-09-27T04:31:07.602Z,3.63
2022-09-27T04:33:34.458Z,1.50
2022-09-27T04:36:19.767Z,2.97
2022-09-27T04:38:46.337Z,10.00
2022-09-27T04:41:13.728Z,1.55
2022-09-27T04:43:40.394Z,3.25
2022-09-27T04:46:07.286Z,5.93
2022-09-27T04:48:34.479Z,2.75
2022-09-27T04:51:02.806Z,6.00
2022-09-27T04:53:30.082Z,3.15
2022-09-27T04:55:57.086Z,3.80
2022-09-27T04:58:24.282Z,2.45
2022-09-27T05:00:52.349Z,4.68
2022-09-27T05:03:19.445Z,3.08
2022-09-27T05:05:46.037Z,4.43
2022-09-27T05:08:12.670Z,2.20
2022-09-27T05:10:39.527Z,3.05
2022-09-27T05:13:06.572Z,4.63
2022-09-27T05:15:34.323Z,1.45
2022-09-27T05:18:00.975Z,1.95
2022-09-27T05:20:27.696Z,2.67
2022-09-27T05:22:54.615Z,5.03
2022-09-27T05:25:21.239Z,2.03
2022-09-27T05:27:47.951Z,2.80
2022-09-27T05:30:14.534Z,2.28
2022-09-27T05:32:44.178Z,1.50
2022-09-27T05:35:11.125Z,1.50
2022-09-27T05:37:38.510Z,3.65
2022-09-27T05:40:22.369Z,1.13
2022-09-27T05:42:53.782Z,3.63
2022-09-27T05:45:22.591Z,1.08
2022-09-27T05:47:54.049Z,1.60
2022-09-27T05:50:20.661Z,1.33
2022-09-27T05:52:48.112Z,2.20
2022-09-27T05:55:15.266Z,2.72
2022-09-27T05:57:42.025Z,1.80
2022-09-27T06:00:10.320Z,2.30
2022-09-27T06:02:37.033Z,1.92
2022-09-27T06:05:03.868Z,1.40
2022-09-27T06:07:32.108Z,2.42
2022-09-27T06:09:58.786Z,1.35
2022-09-27T06:12:25.417Z,1.77
2022-09-27T06:14:52.866Z,2.35
2022-09-27T06:17:19.620Z,3.10
2022-09-27T06:19:47.647Z,2.55
2022-09-27T06:22:14.468Z,4.00
2022-09-27T06:24:41.672Z,2.13
2022-09-27T06:27:08.289Z,2.15
2022-09-27T06:29:35.214Z,3.97
2022-09-27T06:32:02.015Z,1.95
2022-09-27T06:34:28.670Z,2.33
2022-09-27T06:36:55.250Z,4.38
2022-09-27T06:39:21.844Z,3.47
2022-09-27T06:41:48.460Z,6.40
2022-09-27T06:44:15.032Z,6.95
2022-09-27T06:46:42.680Z,4.07
2022-09-27T06:49:09.372Z,4.82
2022-09-27T06:51:36.433Z,2.75
2022-09-27T06:54:02.998Z,5.43
2022-09-27T06:56:29.612Z,3.95
2022-09-27T06:59:14.887Z,3.30
2022-09-27T07:01:41.724Z,3.35
2022-09-27T07:04:11.158Z,5.82
2022-09-27T07:06:37.868Z,4.75
2022-09-27T07:09:06.616Z,2.78
2022-09-27T07:11:36.809Z,2.25
2022-09-27T07:14:04.662Z,3.65
2022-09-27T07:16:31.704Z,3.30
2022-09-27T07:18:58.340Z,2.03
2022-09-27T07:21:24.963Z,2.55
2022-09-27T07:23:51.563Z,3.35
2022-09-27T07:26:18.276Z,2.72
2022-09-27T07:28:46.014Z,5.28
2022-09-27T07:31:12.901Z,4.20
2022-09-27T07:33:43.267Z,9.30
2022-09-27T07:36:11.367Z,2.10
2022-09-27T07:38:38.118Z,2.88
2022-09-27T07:41:14.676Z,1.95
2022-09-27T07:43:44.489Z,2.30
2022-09-27T07:48:37.872Z,6.03
2022-09-27T07:51:07.611Z,0.88
2022-09-27T07:56:00.955Z,3.40
2022-09-27T07:58:28.108Z,0.60
2022-09-27T08:00:56.771Z,5.28
2022-09-27T08:03:23.469Z,5.55
2022-09-27T08:05:50.075Z,2.90
2022-09-27T08:08:17.192Z,2.40
2022-09-27T08:10:47.047Z,2.50
2022-09-27T08:13:16.135Z,0.77
2022-09-27T08:15:42.794Z,5.10
2022-09-27T08:18:09.619Z,3.90
2022-09-27T08:20:36.767Z,4.45
2022-09-27T08:23:04.263Z,3.53
2022-09-27T08:25:31.223Z,1.52
2022-09-27T08:27:59.040Z,4.75
2022-09-27T08:30:26.489Z,4.53
2022-09-27T08:32:57.138Z,1.08
2022-09-27T08:35:23.884Z,2.33
2022-09-27T08:37:59.705Z,5.20
2022-09-27T08:40:38.197Z,2.08
2022-09-27T08:43:17.161Z,0.68
2022-09-27T08:45:52.946Z,3.65
2022-09-27T08:48:19.674Z,2.40
2022-09-27T08:50:48.093Z,2.60
2022-09-27T08:53:14.638Z,5.50
2022-09-27T08:55:58.922Z,2.50
2022-09-27T08:58:46.490Z,1.40
2022-09-27T09:01:18.297Z,4.63
2022-09-27T09:03:51.610Z,2.78
2022-09-27T09:06:28.998Z,1.02
2022-09-27T09:09:33.207Z,2.33
2022-09-27T09:12:47.937Z,5.60
2022-09-27T09:15:56.798Z,1.55
2022-09-27T09:18:35.749Z,0.93
2022-09-27T09:21:25.618Z,2.85
2022-09-27T09:24:13.612Z,2.33
2022-09-27T09:26:47.332Z,0.85
2022-09-27T09:29:39.815Z,3.72
2022-09-27T09:32:25.597Z,5.95
2022-09-27T09:34:57.877Z,1.80
2022-09-27T09:37:39.745Z,5.05
2022-09-27T09:40:09.316Z,3.17
2022-09-27T09:42:42.917Z,2.28
2022-09-27T09:45:21.059Z,3.63
2022-09-27T09:48:12.048Z,4.32
2022-09-27T09:50:50.721Z,2.25
2022-09-27T09:53:36.672Z,1.98
2022-09-27T09:56:07.843Z,3.30
2022-09-27T09:58:49.437Z,2.17
2022-09-27T10:01:22.343Z,0.88
2022-09-27T10:03:49.349Z,1.02
2022-09-27T10:06:17.837Z,1.10
2022-09-27T10:08:44.876Z,2.05
2022-09-27T10:11:25.607Z,5.85
2022-09-27T10:13:53.303Z,4.50
2022-09-27T10:16:21.428Z,3.45
2022-09-27T10:18:50.824Z,0.68
2022-09-27T10:21:25.625Z,1.50
2022-09-27T10:24:17.768Z,2.92
2022-09-27T10:26:47.182Z,1.23
2022-09-27T10:29:16.988Z,3.67
2022-09-27T10:31:47.760Z,1.30
2022-09-27T10:34:32.804Z,1.73
2022-09-27T10:37:17.464Z,1.08
2022-09-27T10:39:46.343Z,2.15
2022-09-27T10:42:38.529Z,0.57
2022-09-27T10:45:22.888Z,0.50
2022-09-27T10:47:49.711Z,1.83
2022-09-27T10:50:45.953Z,0.82
2022-09-27T10:53:19.086Z,1.33
2022-09-27T10:55:49.595Z,0.90
2022-09-27T10:58:37.986Z,1.33
2022-09-27T11:01:08.670Z,1.40
2022-09-27T11:03:57.783Z,1.92
2022-09-27T11:06:24.347Z,0.73
2022-09-27T11:08:52.924Z,3.95
2022-09-27T11:11:28.282Z,1.15
2022-09-27T11:14:08.250Z,1.05
2022-09-27T11:17:16.083Z,1.42
2022-09-27T11:20:15.150Z,1.38
2022-09-27T11:23:11.874Z,2.72
2022-09-27T11:25:58.067Z,1.50
2022-09-27T11:28:43.704Z,1.00
2022-09-27T11:31:25.644Z,1.65
2022-09-27T11:34:21.110Z,0.52
2022-09-27T11:37:15.525Z,2.28
2022-09-27T11:39:54.242Z,0.88
2022-09-27T11:42:49.648Z,2.33
2022-09-27T11:45:41.190Z,0.60
2022-09-27T11:48:31.058Z,1.73
2022-09-27T11:51:24.117Z,0.77
2022-09-27T11:54:17.876Z,3.22
2022-09-27T11:57:00.701Z,2.47
2022-09-27T11:59:38.691Z,3.92
2022-09-27T12:02:58.819Z,0.85
2022-09-27T12:05:39.759Z,1.42
2022-09-27T12:08:30.451Z,2.25
2022-09-27T12:11:20.055Z,2.08
2022-09-27T12:13:57.010Z,1.88
2022-09-27T12:16:25.627Z,3.08
2022-09-27T12:18:53.359Z,3.72
2022-09-27T12:21:21.333Z,1.55
2022-09-27T12:23:55.395Z,3.17
2022-09-27T12:26:37.555Z,1.77
2022-09-27T12:29:14.234Z,1.45
2022-09-27T12:32:08.862Z,1.45
2022-09-27T12:34:42.481Z,1.10
2022-09-27T12:37:20.931Z,2.83
2022-09-27T12:39:57.406Z,0.80
2022-09-27T12:42:29.021Z,0.60
2022-09-27T12:44:56.393Z,0.70
2022-09-27T12:47:38.621Z,1.65
2022-09-27T12:50:20.004Z,2.25
2022-09-27T12:52:52.970Z,2.13
2022-09-27T12:55:38.887Z,1.92
2022-09-27T12:58:14.649Z,1.38
2022-09-27T13:00:47.191Z,0.77
2022-09-27T13:03:32.606Z,1.95
2022-09-27T13:06:05.073Z,1.55
2022-09-27T13:08:53.884Z,3.63
2022-09-27T13:11:26.397Z,1.20
2022-09-27T13:13:58.179Z,1.55
2022-09-27T13:16:25.788Z,3.47
2022-09-27T13:19:01.662Z,4.25
2022-09-27T13:21:49.330Z,4.68
2022-09-27T13:24:40.014Z,1.77
2022-09-27T13:27:28.593Z,0.88
2022-09-27T13:30:16.305Z,0.80
2022-09-27T13:33:08.556Z,1.05
2022-09-27T13:35:35.378Z,5.32
2022-09-27T13:38:02.866Z,1.27
2022-09-27T13:40:36.343Z,2.55
2022-09-27T13:43:13.307Z,2.28
2022-09-27T13:45:51.131Z,2.03
2022-09-27T13:48:37.896Z,1.45
2022-09-27T13:51:09.787Z,1.15
2022-09-27T13:53:40.655Z,2.92
2022-09-27T13:56:48.224Z,1.80
2022-09-27T13:59:27.866Z,0.95
2022-09-27T14:02:08.701Z,5.03
2022-09-27T14:04:51.463Z,0.88
2022-09-27T14:07:40.626Z,0.88
2022-09-27T14:10:14.151Z,1.10
2022-09-27T14:12:42.518Z,0.60
2022-09-27T14:15:19.202Z,7.88
2022-09-27T14:17:46.017Z,1.42
2022-09-27T14:20:36.726Z,3.10
2022-09-27T14:23:04.509Z,1.23
2022-09-27T14:25:31.221Z,1.50
2022-09-27T14:28:00.735Z,1.15
2022-09-27T14:30:29.481Z,1.02
2022-09-27T14:33:01.591Z,0.95
2022-09-27T14:35:48.619Z,1.75
2022-09-27T14:38:37.032Z,0.90
2022-09-27T14:43:36.169Z,1.10
2022-09-27T14:46:06.963Z,2.47
2022-09-27T14:48:35.724Z,0.95
2022-09-27T14:51:20.661Z,4.40
2022-09-27T14:53:56.950Z,1.17
2022-09-27T14:56:31.785Z,3.42
2022-09-27T14:59:03.006Z,1.70
2022-09-27T15:01:30.323Z,1.05
2022-09-27T15:04:08.543Z,2.15
2022-09-27T15:06:36.831Z,2.30
2022-09-27T15:09:05.013Z,1.73
2022-09-27T15:11:33.193Z,1.27
2022-09-27T15:14:02.000Z,3.20
2022-09-27T15:16:31.093Z,1.30
2022-09-27T15:19:15.569Z,1.75
2022-09-27T15:21:42.210Z,3.92
2022-09-27T15:24:38.517Z,1.15
2022-09-27T15:27:18.057Z,2.53
2022-09-27T15:29:51.365Z,1.83
2022-09-27T15:32:21.706Z,3.10
2022-09-27T15:34:48.696Z,1.55
2022-09-27T15:37:36.964Z,1.30
2022-09-27T15:40:19.640Z,2.22
2022-09-27T15:42:57.784Z,1.50
2022-09-27T15:45:29.440Z,1.95
2022-09-27T15:47:56.082Z,1.33
2022-09-27T15:50:25.586Z,2.83
2022-09-27T15:52:57.130Z,42.10
2022-09-27T15:55:26.904Z,11.35
2022-09-27T16:00:29.774Z,3.03
2022-09-27T16:02:56.783Z,1.73
2022-09-27T16:05:24.294Z,2.55
2022-09-27T16:07:51.398Z,3.15
2022-09-27T16:10:22.443Z,3.67
2022-09-27T16:12:50.802Z,2.75
2022-09-27T16:15:17.618Z,2.33
2022-09-27T16:17:44.512Z,5.10
2022-09-27T16:20:18.504Z,2.67
2022-09-27T16:22:45.773Z,4.03
2022-09-27T16:25:12.724Z,1.70
2022-09-27T16:27:39.409Z,2.30
2022-09-27T16:30:06.761Z,2.45
2022-09-27T16:32:34.080Z,3.95
2022-09-27T16:35:00.639Z,1.10
2022-09-27T16:37:27.898Z,5.18
2022-09-27T16:39:54.488Z,2.00
2022-09-27T16:42:21.121Z,1.42
2022-09-27T16:44:49.092Z,2.15
2022-09-27T16:47:15.775Z,2.97
2022-09-27T16:50:01.157Z,1.75
2022-09-27T16:52:34.014Z,1.20
2022-09-27T16:55:00.689Z,1.58
2022-09-27T16:57:33.486Z,4.57
2022-09-27T17:00:04.991Z,2.65
2022-09-27T17:02:32.584Z,1.55
2022-09-27T17:04:59.185Z,1.75
2022-09-27T17:07:25.823Z,2.20
2022-09-27T17:09:52.433Z,1.70
2022-09-27T17:12:19.707Z,2.35
2022-09-27T17:14:46.331Z,2.30
2022-09-27T17:17:12.998Z,1.63
2022-09-27T17:19:39.604Z,1.30
2022-09-27T17:22:09.024Z,2.10
2022-09-27T17:24:35.871Z,1.95
2022-09-27T17:27:03.305Z,3.50
2022-09-27T17:29:31.001Z,2.70
2022-09-27T17:31:57.626Z,3.65
2022-09-27T17:34:24.258Z,2.50
2022-09-27T17:36:51.813Z,3.47
2022-09-27T17:39:21.181Z,4.50
2022-09-27T17:41:51.204Z,2.95
2022-09-27T17:44:18.642Z,3.08
2022-09-27T17:46:46.612Z,2.35
2022-09-27T17:49:32.451Z,6.55
2022-09-27T17:51:59.304Z,5.13
2022-09-27T17:54:27.962Z,2.92
2022-09-27T17:56:56.179Z,4.25
2022-09-27T17:59:23.007Z,3.15
2022-09-27T18:01:49.959Z,6.22
2022-09-27T18:04:19.564Z,4.25
2022-09-27T18:06:47.456Z,3.72
2022-09-27T18:09:16.535Z,3.30
2022-09-27T18:11:44.198Z,5.97
2022-09-27T18:14:11.041Z,5.43
2022-09-27T18:16:42.893Z,5.65
2022-09-27T18:19:13.055Z,7.72
2022-09-27T18:21:39.750Z,9.00
2022-09-27T18:24:07.175Z,7.85
2022-09-27T18:26:36.720Z,6.78
2022-09-27T18:29:06.551Z,10.65
2022-09-27T18:33:59.995Z,9.70
2022-09-27T18:36:27.452Z,7.80
2022-09-27T18:39:03.107Z,5.90
2022-09-27T18:41:32.399Z,17.90
2022-09-27T18:44:01.816Z,17.45
2022-09-27T18:46:35.606Z,8.75
2022-09-27T18:49:08.118Z,4.28
2022-09-27T18:51:37.696Z,5.07
2022-09-27T18:56:39.606Z,4.13
2022-09-27T18:59:10.414Z,5.57
2022-09-27T19:01:39.830Z,8.57
2022-09-27T19:04:08.109Z,3.88
2022-09-27T19:06:35.948Z,5.55
2022-09-27T19:09:03.876Z,6.93
2022-09-27T19:11:30.651Z,7.55
2022-09-27T19:13:58.640Z,10.85
2022-09-27T19:16:26.886Z,9.95
2022-09-27T19:18:54.154Z,5.10
2022-09-27T19:21:26.227Z,6.60
2022-09-27T19:23:53.658Z,7.15
2022-09-27T19:26:22.922Z,8.55
2022-09-27T19:28:50.410Z,5.40
2022-09-27T19:31:23.010Z,5.53
2022-09-27T19:33:49.730Z,8.05
2022-09-27T19:36:18.175Z,6.65
2022-09-27T19:38:45.638Z,5.38
2022-09-27T19:41:14.727Z,4.72
2022-09-27T19:43:43.819Z,6.75
2022-09-27T19:46:15.658Z,8.85
2022-09-27T19:48:43.514Z,4.38
2022-09-27T19:51:15.371Z,3.72
2022-09-27T19:53:42.435Z,4.97
2022-09-27T19:56:10.573Z,3.33
2022-09-27T19:58:39.416Z,7.22
2022-09-27T20:01:12.363Z,8.33
2022-09-27T20:03:41.802Z,3.55
2022-09-27T20:06:11.206Z,3.97
2022-09-27T20:08:38.273Z,14.52
2022-09-27T20:11:10.766Z,4.45
2022-09-27T20:13:38.288Z,7.38
2022-09-27T20:16:09.797Z,3.83
2022-09-27T20:18:47.982Z,4.63
2022-09-27T20:21:16.296Z,4.75
2022-09-27T20:23:43.275Z,5.47
2022-09-27T20:26:13.081Z,5.80
2022-09-27T20:31:08.753Z,7.55
2022-09-27T20:33:41.120Z,7.43
2022-09-27T20:36:09.754Z,5.03
2022-09-27T20:38:36.392Z,6.05
2022-09-27T20:41:03.879Z,6.50
2022-09-27T20:43:31.534Z,7.00
2022-09-27T20:46:10.936Z,5.45
2022-09-27T20:48:38.376Z,6.70
2022-09-27T20:51:05.306Z,7.50
2022-09-27T20:53:33.023Z,8.43
2022-09-27T20:56:03.726Z,6.05
2022-09-27T20:58:32.144Z,6.55
2022-09-27T21:01:05.776Z,10.55
2022-09-27T21:03:32.710Z,5.25
2022-09-27T21:05:59.563Z,5.80
2022-09-27T21:08:29.699Z,5.95
2022-09-27T21:11:03.055Z,8.90
2022-09-27T21:13:29.688Z,8.60
2022-09-27T21:16:00.872Z,6.40
2022-09-27T21:18:27.571Z,6.97
2022-09-27T21:21:01.891Z,5.47
2022-09-27T21:23:32.133Z,5.53
2022-09-27T21:26:16.088Z,7.07
2022-09-27T21:28:45.258Z,6.03
2022-09-27T21:31:26.283Z,5.25
2022-09-27T21:33:55.333Z,5.20
2022-09-27T21:36:27.357Z,5.78
2022-09-27T21:38:54.957Z,4.88
2022-09-27T21:41:21.852Z,4.38
2022-09-27T21:43:49.261Z,9.23
2022-09-27T21:46:17.509Z,4.22
2022-09-27T21:48:46.754Z,5.65
2022-09-27T21:51:16.435Z,3.92
2022-09-27T21:53:49.137Z,7.10
2022-09-27T21:56:15.712Z,7.70
2022-09-27T21:58:42.609Z,7.85
2022-09-27T22:01:30.756Z,7.90
2022-09-27T22:03:58.509Z,5.57
2022-09-27T22:06:27.769Z,5.72
2022-09-27T22:08:55.681Z,5.47
2022-09-27T22:11:49.742Z,8.27
2022-09-27T22:14:20.184Z,6.28
2022-09-27T22:16:47.428Z,9.63
2022-09-27T22:19:15.626Z,3.88
2022-09-27T22:21:42.914Z,8.13
2022-09-27T22:24:15.355Z,5.85
2022-09-27T22:26:46.480Z,6.72
2022-09-27T22:29:13.117Z,10.15
2022-09-27T22:31:39.756Z,6.28
2022-09-27T22:34:10.689Z,6.47
2022-09-27T22:36:37.638Z,4.43
2022-09-27T22:39:04.268Z,7.65
2022-09-27T22:41:31.833Z,7.32
2022-09-27T22:43:58.518Z,6.05
2022-09-27T22:46:25.401Z,5.32
2022-09-27T22:48:52.275Z,6.63
2022-09-27T22:51:19.218Z,9.85
2022-09-27T22:53:45.851Z,12.88
2022-09-27T22:56:18.248Z,5.60
2022-09-27T22:58:47.212Z,5.65
2022-09-27T23:01:22.576Z,9.00
2022-09-27T23:03:50.379Z,6.60
2022-09-27T23:06:18.567Z,8.95
2022-09-27T23:08:45.543Z,6.60
2022-09-27T23:11:14.797Z,10.70
2022-09-27T23:13:42.862Z,9.15
2022-09-27T23:16:12.208Z,10.48
2022-09-27T23:18:39.566Z,10.00
2022-09-27T23:21:08.343Z,7.28
2022-09-27T23:23:37.350Z,13.20
2022-09-27T23:26:06.761Z,9.68
2022-09-27T23:28:34.222Z,9.35
2022-09-27T23:31:08.622Z,11.25
2022-09-27T23:33:40.646Z,12.57
2022-09-27T23:36:10.312Z,10.55
2022-09-27T23:38:38.763Z,12.23
2022-09-27T23:41:08.089Z,9.13
2022-09-27T23:43:35.335Z,14.65
2022-09-27T23:46:06.295Z,10.52
2022-09-27T23:48:36.702Z,13.45
2022-09-27T23:51:05.782Z,14.75
2022-09-27T23:53:32.430Z,13.80
2022-09-27T23:56:12.170Z,17.48
